Time;durP1;ratioP1;P1;durP2;ratioP2;P2;SDS_P1;SDS_P2;PMS_P1;PMS_P2;Temp;Humidity;BMP_temperature;BMP_pressure;BME280_temperature;BME280_humidity;BME280_pressure;Samples;Min_cycle;Max_cycle;Signal;HPM_P1;HPM_P2
2021/09/25 00:01:19;;;;;;;18.20;16.33;;;19.20;99.90;;;;;;5135503;27;20508;-61
2021/09/25 00:03:45;;;;;;;18.77;16.93;;;19.20;99.90;;;;;;5135831;27;20474;-62
2021/09/25 00:06:13;;;;;;;17.37;15.77;;;19.30;99.90;;;;;;5135249;27;20464;-62
2021/09/25 00:08:45;;;;;;;20.47;18.53;;;19.30;99.90;;;;;;5135781;27;20485;-62
2021/09/25 00:11:12;;;;;;;20.47;18.33;;;19.30;99.90;;;;;;5135505;27;20472;-62
2021/09/25 00:13:39;;;;;;;19.10;17.00;;;19.30;99.90;;;;;;5135336;27;20548;-62
2021/09/25 00:16:07;;;;;;;20.43;18.40;;;19.30;99.90;;;;;;5135765;27;20813;-62
2021/09/25 00:18:35;;;;;;;17.47;15.87;;;19.30;99.90;;;;;;5133842;27;20464;-62
2021/09/25 00:21:03;;;;;;;19.40;17.40;;;19.30;99.90;;;;;;5134242;27;20471;-62
2021/09/25 00:23:30;;;;;;;27.43;24.80;;;19.30;99.90;;;;;;5134228;27;20474;-62
2021/09/25 00:25:57;;;;;;;21.27;19.13;;;19.30;99.90;;;;;;5124375;27;20475;-62
2021/09/25 00:28:23;;;;;;;21.63;19.43;;;19.40;99.90;;;;;;5134349;27;20467;-62
2021/09/25 00:30:50;;;;;;;23.23;19.03;;;19.30;99.90;;;;;;5135715;27;20460;-61
2021/09/25 00:33:17;;;;;;;19.20;17.37;;;19.30;99.90;;;;;;5121209;27;20464;-62
2021/09/25 00:35:45;;;;;;;19.93;17.93;;;19.30;99.90;;;;;;5135629;27;20773;-62
2021/09/25 00:38:12;;;;;;;18.33;16.53;;;19.30;99.90;;;;;;5134540;27;20478;-62
2021/09/25 00:40:39;;;;;;;19.57;17.57;;;19.30;99.90;;;;;;5132444;27;20469;-62
2021/09/25 00:43:06;;;;;;;20.20;17.50;;;19.30;99.90;;;;;;5132537;27;20472;-62
2021/09/25 00:45:33;;;;;;;26.80;24.03;;;19.30;99.90;;;;;;5132666;27;20805;-61
2021/09/25 00:47:59;;;;;;;21.03;18.83;;;19.30;99.90;;;;;;5132959;27;20470;-62
2021/09/25 00:50:28;;;;;;;19.30;17.50;;;19.30;99.90;;;;;;5132508;27;20472;-62
2021/09/25 00:52:56;;;;;;;17.13;15.40;;;19.40;99.90;;;;;;5132221;27;20485;-61
2021/09/25 00:55:23;;;;;;;18.00;16.10;;;19.30;99.90;;;;;;5132406;27;20812;-62
2021/09/25 00:57:57;;;;;;;22.17;19.80;;;19.40;99.90;;;;;;5133112;27;20460;-61
2021/09/25 01:00:25;;;;;;;17.20;15.60;;;19.40;99.90;;;;;;5132491;27;20478;-62
2021/09/25 01:02:52;;;;;;;20.03;18.13;;;19.40;99.90;;;;;;5132608;27;20794;-62
2021/09/25 01:05:20;;;;;;;22.20;20.00;;;19.30;99.90;;;;;;5132150;27;20474;-62
2021/09/25 01:07:47;;;;;;;19.60;17.57;;;19.30;99.90;;;;;;5132215;27;20468;-62
2021/09/25 01:10:16;;;;;;;33.93;30.53;;;19.40;99.90;;;;;;5131720;27;20469;-62
2021/09/25 01:12:43;;;;;;;22.30;20.10;;;19.30;99.90;;;;;;5132395;27;20456;-62
2021/09/25 01:15:11;;;;;;;19.97;18.07;;;19.40;99.90;;;;;;5132629;27;20463;-62
2021/09/25 01:17:38;;;;;;;18.00;16.20;;;19.40;99.90;;;;;;5131918;27;20470;-62
2021/09/25 01:20:08;;;;;;;17.90;16.30;;;19.30;99.90;;;;;;5131528;27;20809;-61
2021/09/25 01:22:36;;;;;;;19.13;17.33;;;19.30;99.90;;;;;;5131316;27;20528;-62
2021/09/25 01:25:04;;;;;;;19.10;17.23;;;19.40;99.90;;;;;;5132096;27;20463;-62
2021/09/25 01:27:31;;;;;;;18.00;16.30;;;19.40;99.90;;;;;;5131643;27;20474;-62
2021/09/25 01:29:58;;;;;;;20.47;18.17;;;19.40;99.90;;;;;;5132939;27;20564;-61
2021/09/25 01:32:25;;;;;;;18.47;16.77;;;19.40;99.90;;;;;;5134100;27;20460;-62
2021/09/25 01:34:52;;;;;;;17.43;15.73;;;19.40;99.90;;;;;;5134165;27;20460;-61
2021/09/25 01:37:19;;;;;;;19.73;17.30;;;19.40;99.90;;;;;;5133920;27;20463;-62
2021/09/25 01:39:47;;;;;;;18.77;16.97;;;19.40;99.90;;;;;;5134219;27;20463;-62
2021/09/25 01:42:14;;;;;;;16.67;15.17;;;19.40;99.90;;;;;;5134346;27;20470;-62
2021/09/25 01:44:40;;;;;;;18.77;16.07;;;19.40;99.90;;;;;;5133921;27;20801;-62
2021/09/25 01:47:07;;;;;;;17.60;15.90;;;19.40;99.90;;;;;;5134173;27;20468;-62
2021/09/25 01:49:34;;;;;;;15.93;14.40;;;19.40;99.90;;;;;;5133810;27;20482;-62
2021/09/25 01:52:01;;;;;;;17.80;15.90;;;19.40;99.90;;;;;;5134173;27;20967;-62
2021/09/25 01:54:28;;;;;;;17.00;15.50;;;19.40;99.90;;;;;;5133623;27;20474;-61
2021/09/25 01:56:56;;;;;;;15.53;13.93;;;19.40;99.90;;;;;;5134375;27;20463;-62
2021/09/25 01:59:23;;;;;;;17.07;15.47;;;19.40;99.90;;;;;;5133400;27;20562;-62
2021/09/25 02:01:50;;;;;;;19.47;17.40;;;19.40;99.90;;;;;;5134179;27;20792;-62
2021/09/25 02:04:16;;;;;;;16.80;15.40;;;19.40;99.90;;;;;;5133744;27;20482;-62
2021/09/25 02:06:43;;;;;;;17.43;15.67;;;19.40;99.90;;;;;;5133453;27;20455;-62
2021/09/25 02:09:10;;;;;;;23.20;20.77;;;19.40;99.90;;;;;;5133916;27;20478;-61
2021/09/25 02:11:37;;;;;;;22.43;20.00;;;19.40;99.90;;;;;;5133684;27;20463;-62
2021/09/25 02:14:05;;;;;;;19.97;17.97;;;19.30;99.90;;;;;;5133453;27;20464;-61
2021/09/25 02:16:32;;;;;;;17.40;15.60;;;19.30;99.90;;;;;;5132921;27;20471;-62
2021/09/25 02:18:59;;;;;;;17.80;16.10;;;19.40;99.90;;;;;;5133672;27;20979;-61
2021/09/25 02:21:26;;;;;;;16.10;14.60;;;19.30;99.90;;;;;;5133298;27;20474;-62
2021/09/25 02:23:53;;;;;;;17.13;15.47;;;19.30;99.90;;;;;;5133806;27;20460;-62
2021/09/25 02:26:20;;;;;;;14.90;13.10;;;19.30;99.90;;;;;;5133857;27;20469;-62
2021/09/25 02:28:46;;;;;;;12.83;11.63;;;19.40;99.90;;;;;;5133317;27;20456;-62
2021/09/25 02:31:19;;;;;;;15.40;13.90;;;19.40;99.90;;;;;;5133648;27;20800;-62
2021/09/25 02:33:47;;;;;;;16.10;14.60;;;19.30;99.90;;;;;;5133220;27;20862;-62
2021/09/25 02:36:13;;;;;;;14.53;13.13;;;19.40;99.90;;;;;;5133437;27;20478;-62
2021/09/25 02:38:40;;;;;;;13.00;11.90;;;19.40;99.90;;;;;;5133096;27;20468;-62
2021/09/25 02:41:07;;;;;;;19.20;17.40;;;19.40;99.90;;;;;;5133511;27;20961;-62
2021/09/25 02:43:34;;;;;;;18.23;16.40;;;19.40;99.90;;;;;;5132814;27;20474;-62
2021/09/25 02:46:01;;;;;;;16.90;15.27;;;19.40;99.90;;;;;;5133603;27;20464;-62
2021/09/25 02:48:29;;;;;;;17.90;16.17;;;19.40;99.90;;;;;;5132855;27;20981;-62
2021/09/25 02:50:56;;;;;;;15.57;14.17;;;19.40;99.90;;;;;;5133340;27;20456;-61
2021/09/25 02:53:23;;;;;;;14.17;12.77;;;19.30;99.90;;;;;;5133433;27;20468;-62
2021/09/25 02:55:50;;;;;;;16.30;14.67;;;19.30;99.90;;;;;;5133184;27;20504;-62
2021/09/25 02:58:17;;;;;;;15.20;13.70;;;19.30;99.90;;;;;;5133370;27;20800;-61
2021/09/25 03:00:44;;;;;;;16.53;14.80;;;19.30;99.90;;;;;;5132851;27;20459;-62
2021/09/25 03:03:11;;;;;;;15.00;13.70;;;19.30;99.90;;;;;;5133041;27;20479;-62
2021/09/25 03:05:39;;;;;;;15.17;13.67;;;19.30;99.90;;;;;;5132812;27;20796;-61
2021/09/25 03:08:06;;;;;;;14.47;13.03;;;19.30;99.90;;;;;;5133215;27;20470;-61
2021/09/25 03:10:33;;;;;;;19.63;17.63;;;19.40;99.90;;;;;;5132804;27;20464;-62
2021/09/25 03:13:00;;;;;;;19.30;17.50;;;19.30;99.90;;;;;;5133130;27;20463;-62
2021/09/25 03:15:27;;;;;;;14.67;13.27;;;19.30;99.90;;;;;;5132977;27;20455;-62
2021/09/25 03:17:53;;;;;;;15.40;14.10;;;19.30;99.90;;;;;;5132983;27;20474;-62
2021/09/25 03:20:20;;;;;;;17.40;15.80;;;19.30;99.90;;;;;;5132975;27;20809;-62
2021/09/25 03:22:48;;;;;;;13.43;12.13;;;19.30;99.90;;;;;;5132799;27;20463;-62
2021/09/25 03:25:15;;;;;;;14.57;13.27;;;19.30;99.90;;;;;;5133071;27;20464;-62
2021/09/25 03:27:45;;;;;;;14.70;13.20;;;19.30;99.90;;;;;;5136090;27;20464;-62
2021/09/25 03:30:13;;;;;;;18.40;16.67;;;19.30;99.90;;;;;;5137020;27;20478;-62
2021/09/25 03:32:40;;;;;;;15.57;13.90;;;19.30;99.90;;;;;;5136168;27;20464;-62
2021/09/25 03:35:08;;;;;;;20.43;17.43;;;19.30;99.90;;;;;;5136836;27;20485;-62
2021/09/25 03:37:35;;;;;;;15.27;13.77;;;19.30;99.90;;;;;;5136536;27;20469;-62
2021/09/25 03:40:04;;;;;;;17.40;15.60;;;19.30;99.90;;;;;;5136708;27;20473;-62
2021/09/25 03:42:30;;;;;;;13.53;12.30;;;19.30;99.90;;;;;;5136131;27;20473;-62
2021/09/25 03:44:57;;;;;;;14.90;13.50;;;19.30;99.90;;;;;;5136049;27;20469;-62
2021/09/25 03:47:24;;;;;;;13.93;12.73;;;19.30;99.90;;;;;;5136340;27;20473;-61
2021/09/25 03:49:51;;;;;;;12.40;11.10;;;19.30;99.90;;;;;;5136161;27;20913;-62
2021/09/25 03:52:18;;;;;;;14.97;13.37;;;19.30;99.90;;;;;;5136436;27;20980;-62
2021/09/25 03:54:45;;;;;;;14.60;13.20;;;19.30;99.90;;;;;;5135816;27;20988;-62
2021/09/25 03:57:13;;;;;;;17.67;15.10;;;19.30;99.90;;;;;;5136365;27;20467;-62
2021/09/25 03:59:40;;;;;;;14.63;13.17;;;19.30;99.90;;;;;;5135976;27;20468;-62
2021/09/25 04:02:07;;;;;;;14.60;13.10;;;19.30;99.90;;;;;;5136231;27;20464;-61
2021/09/25 04:04:33;;;;;;;12.57;11.30;;;19.30;99.90;;;;;;5135790;27;20464;-62
2021/09/25 04:07:00;;;;;;;15.87;14.27;;;19.30;99.90;;;;;;5136287;27;20468;-62
2021/09/25 04:09:27;;;;;;;13.70;12.60;;;19.30;99.90;;;;;;5136047;27;20455;-62
2021/09/25 04:11:54;;;;;;;13.37;12.00;;;19.30;99.90;;;;;;5135848;27;20463;-61
2021/09/25 04:14:23;;;;;;;15.20;13.80;;;19.30;99.90;;;;;;5135927;27;20477;-62
2021/09/25 04:16:50;;;;;;;17.73;15.23;;;19.20;99.90;;;;;;5135796;27;20520;-62
2021/09/25 04:19:17;;;;;;;29.30;23.87;;;19.20;99.90;;;;;;5135809;27;20478;-62
2021/09/25 04:21:44;;;;;;;17.10;15.40;;;19.10;99.90;;;;;;5135379;27;20961;-62
2021/09/25 04:24:11;;;;;;;16.17;14.47;;;19.20;99.90;;;;;;5136046;27;20486;-62
2021/09/25 04:26:38;;;;;;;17.40;15.70;;;19.10;99.90;;;;;;5135534;27;20459;-62
2021/09/25 04:29:05;;;;;;;16.03;14.50;;;19.10;99.90;;;;;;5135566;27;20474;-62
2021/09/25 04:31:34;;;;;;;17.83;15.93;;;19.10;99.90;;;;;;5135462;27;20969;-62
2021/09/25 04:34:02;;;;;;;17.07;15.47;;;19.00;99.90;;;;;;5135607;27;20456;-62
2021/09/25 04:36:29;;;;;;;12.97;11.73;;;19.00;99.90;;;;;;5135632;27;20468;-62
2021/09/25 04:38:56;;;;;;;15.27;13.87;;;19.00;99.90;;;;;;5134405;27;20463;-62
2021/09/25 04:41:23;;;;;;;17.70;16.00;;;18.90;99.90;;;;;;5135576;27;20471;-61
2021/09/25 04:43:51;;;;;;;17.70;15.77;;;18.90;99.90;;;;;;5135109;27;20538;-62
2021/09/25 04:46:18;;;;;;;16.20;14.67;;;18.90;99.90;;;;;;5135445;27;20463;-63
2021/09/25 04:48:48;;;;;;;16.10;14.60;;;18.90;99.90;;;;;;5134845;27;20464;-62
2021/09/25 04:51:16;;;;;;;18.17;16.20;;;18.80;99.90;;;;;;5135423;27;20497;-61
2021/09/25 04:53:43;;;;;;;15.30;13.70;;;18.90;99.90;;;;;;5135107;27;20532;-62
2021/09/25 04:56:10;;;;;;;17.33;15.33;;;18.80;99.90;;;;;;5135245;27;20480;-62
2021/09/25 04:58:37;;;;;;;15.80;14.30;;;18.80;99.90;;;;;;5134695;27;20494;-61
2021/09/25 05:01:05;;;;;;;20.87;17.57;;;18.80;99.90;;;;;;5135259;27;20459;-62
2021/09/25 05:03:32;;;;;;;16.33;14.83;;;18.80;99.90;;;;;;5134930;27;20467;-62
2021/09/25 05:06:01;;;;;;;18.90;16.80;;;18.70;99.90;;;;;;5134740;27;20538;-62
2021/09/25 05:08:28;;;;;;;15.73;14.23;;;18.70;99.90;;;;;;5134767;27;20486;-62
2021/09/25 05:10:54;;;;;;;21.10;18.90;;;18.70;99.90;;;;;;5134560;27;20446;-62
2021/09/25 05:13:21;;;;;;;19.40;17.50;;;18.70;99.90;;;;;;5134997;27;20560;-62
2021/09/25 05:15:48;;;;;;;18.37;16.50;;;18.60;99.90;;;;;;5134459;27;20491;-62
2021/09/25 05:18:15;;;;;;;17.70;16.10;;;18.60;99.90;;;;;;5134775;27;20459;-62
2021/09/25 05:20:42;;;;;;;15.50;14.00;;;18.60;99.90;;;;;;5134217;27;20474;-62
2021/09/25 05:23:10;;;;;;;17.67;15.80;;;18.60;99.90;;;;;;5134772;27;20459;-62
2021/09/25 05:25:37;;;;;;;15.37;13.80;;;18.60;99.90;;;;;;5134285;27;20470;-61
2021/09/25 05:28:05;;;;;;;18.00;16.30;;;18.60;99.90;;;;;;5134641;27;20473;-61
2021/09/25 05:30:32;;;;;;;15.33;13.83;;;18.60;99.90;;;;;;5134389;27;20496;-62
2021/09/25 05:32:58;;;;;;;24.47;19.83;;;18.60;99.90;;;;;;5133627;27;20463;-62
2021/09/25 05:35:25;;;;;;;18.30;16.70;;;18.60;99.90;;;;;;5113959;27;20461;-62
2021/09/25 05:37:53;;;;;;;16.63;15.00;;;18.60;99.90;;;;;;5113611;27;20460;-62
2021/09/25 05:40:22;;;;;;;19.40;17.30;;;18.60;99.90;;;;;;5113589;27;21024;-62
2021/09/25 05:42:49;;;;;;;21.77;19.20;;;18.60;99.90;;;;;;5113440;27;20471;-62
2021/09/25 05:45:17;;;;;;;19.07;17.17;;;18.60;99.90;;;;;;5115896;27;20479;-62
2021/09/25 05:47:45;;;;;;;17.63;15.93;;;18.60;99.90;;;;;;5133966;27;20790;-62
2021/09/25 05:50:12;;;;;;;16.10;14.27;;;18.60;99.90;;;;;;5134160;27;20474;-62
2021/09/25 05:52:40;;;;;;;18.57;16.77;;;18.60;99.90;;;;;;5133766;27;20539;-62
2021/09/25 05:55:08;;;;;;;14.33;12.90;;;18.60;99.90;;;;;;5134045;27;20967;-62
2021/09/25 05:57:36;;;;;;;13.57;12.27;;;18.60;99.90;;;;;;5134170;27;20459;-62
2021/09/25 06:00:04;;;;;;;15.30;13.87;;;18.60;99.90;;;;;;5133763;27;21290;-62
2021/09/25 06:02:31;;;;;;;15.43;14.00;;;18.60;99.90;;;;;;5133866;27;20456;-62
2021/09/25 06:04:58;;;;;;;17.97;16.07;;;18.70;99.90;;;;;;5133592;27;20478;-62
2021/09/25 06:07:24;;;;;;;17.40;15.20;;;18.70;99.90;;;;;;5134075;27;20467;-62
2021/09/25 06:09:51;;;;;;;14.20;12.77;;;18.70;99.90;;;;;;5133254;27;20468;-62
2021/09/25 06:12:18;;;;;;;14.50;13.00;;;18.70;99.90;;;;;;5134027;27;20552;-62
2021/09/25 06:14:46;;;;;;;17.17;14.87;;;18.80;99.90;;;;;;5133550;27;20466;-62
2021/09/25 06:17:13;;;;;;;13.33;12.03;;;18.80;99.90;;;;;;5133768;27;20961;-62
2021/09/25 06:19:40;;;;;;;12.63;11.47;;;18.80;99.90;;;;;;5133474;27;21093;-62
2021/09/25 06:22:07;;;;;;;11.27;10.27;;;18.80;99.90;;;;;;5133709;27;20459;-62
2021/09/25 06:24:34;;;;;;;14.60;12.40;;;18.90;99.90;;;;;;5133800;27;20463;-62
2021/09/25 06:27:01;;;;;;;17.33;15.73;;;18.90;99.90;;;;;;5133508;27;20470;-62
2021/09/25 06:29:27;;;;;;;17.33;15.57;;;18.90;99.90;;;;;;5133603;27;20463;-62
2021/09/25 06:31:56;;;;;;;15.77;13.90;;;18.90;99.90;;;;;;5133290;27;20463;-62
2021/09/25 06:34:23;;;;;;;17.37;14.87;;;19.00;99.90;;;;;;5133511;27;20463;-62
2021/09/25 06:36:50;;;;;;;15.47;13.97;;;19.00;99.90;;;;;;5133186;27;20468;-62
2021/09/25 06:39:17;;;;;;;15.83;14.13;;;19.00;99.90;;;;;;5133563;27;20468;-62
2021/09/25 06:41:44;;;;;;;15.60;14.10;;;19.00;99.90;;;;;;5133311;27;20975;-62
2021/09/25 06:44:11;;;;;;;16.03;14.33;;;19.00;99.90;;;;;;5133593;27;20456;-62
2021/09/25 06:46:38;;;;;;;18.80;16.93;;;19.10;99.90;;;;;;5133627;27;20466;-62
2021/09/25 06:49:06;;;;;;;14.67;13.17;;;19.10;99.90;;;;;;5132977;27;20451;-62
2021/09/25 06:51:33;;;;;;;15.27;13.67;;;19.10;99.90;;;;;;5133383;27;20957;-62
2021/09/25 06:54:00;;;;;;;13.47;12.27;;;19.10;99.90;;;;;;5133241;27;20468;-62
2021/09/25 06:56:27;;;;;;;14.00;12.80;;;19.20;99.90;;;;;;5133555;27;20464;-62
2021/09/25 06:58:54;;;;;;;19.50;17.70;;;19.20;99.90;;;;;;5133039;27;20491;-62
2021/09/25 07:01:21;;;;;;;15.20;13.60;;;19.20;99.90;;;;;;5134728;27;20481;-62
2021/09/25 07:03:48;;;;;;;15.90;14.40;;;19.20;99.90;;;;;;5136784;27;20474;-61
2021/09/25 07:06:16;;;;;;;16.73;15.23;;;19.30;99.90;;;;;;5137578;27;20455;-62
2021/09/25 07:08:43;;;;;;;18.80;16.93;;;19.30;99.90;;;;;;5137025;27;20802;-62
2021/09/25 07:11:10;;;;;;;16.37;14.67;;;19.30;99.90;;;;;;5137370;27;20458;-62
2021/09/25 07:13:37;;;;;;;15.40;14.00;;;19.40;99.90;;;;;;5137498;27;20808;-62
2021/09/25 07:16:04;;;;;;;15.50;14.10;;;19.40;99.90;;;;;;5136713;27;20459;-62
2021/09/25 07:18:31;;;;;;;26.30;23.50;;;19.40;99.90;;;;;;5137226;27;20467;-62
2021/09/25 07:20:58;;;;;;;14.93;13.43;;;19.40;99.90;;;;;;5136656;27;20493;-62
2021/09/25 07:23:26;;;;;;;17.37;15.67;;;19.40;99.90;;;;;;5137082;27;20544;-62
2021/09/25 07:25:53;;;;;;;14.40;13.00;;;19.50;99.90;;;;;;5136803;27;20473;-62
2021/09/25 07:28:20;;;;;;;15.53;13.93;;;19.50;99.90;;;;;;5137003;27;20456;-62
2021/09/25 07:30:48;;;;;;;16.60;14.83;;;19.50;99.90;;;;;;5136518;27;20455;-63
2021/09/25 07:33:16;;;;;;;15.50;14.00;;;19.50;99.90;;;;;;5136498;27;20853;-63
2021/09/25 07:35:44;;;;;;;14.47;13.07;;;19.60;99.90;;;;;;5136905;27;20493;-63
2021/09/25 07:38:11;;;;;;;15.27;12.83;;;19.60;99.90;;;;;;5136646;27;20451;-63
2021/09/25 07:40:39;;;;;;;16.10;14.33;;;19.70;99.90;;;;;;5136720;27;20460;-63
2021/09/25 07:43:06;;;;;;;14.67;13.33;;;19.70;99.90;;;;;;5136272;27;20450;-63
2021/09/25 07:45:33;;;;;;;14.23;12.93;;;19.70;99.90;;;;;;5136711;27;20538;-63
2021/09/25 07:48:01;;;;;;;13.33;12.03;;;19.70;99.90;;;;;;5136133;27;20459;-63
2021/09/25 07:50:28;;;;;;;12.00;10.90;;;19.70;99.90;;;;;;5136364;27;20463;-63
2021/09/25 07:52:56;;;;;;;16.57;13.67;;;19.80;99.90;;;;;;5136048;27;20462;-63
2021/09/25 07:55:25;;;;;;;15.60;14.17;;;19.80;99.90;;;;;;5136408;27;20458;-63
2021/09/25 07:57:54;;;;;;;17.33;15.73;;;19.80;99.90;;;;;;5136156;27;20542;-63
2021/09/25 08:00:22;;;;;;;13.47;12.07;;;19.80;99.90;;;;;;5136103;27;20459;-62
2021/09/25 08:02:49;;;;;;;20.10;16.23;;;19.80;99.90;;;;;;5136088;27;20515;-63
2021/09/25 08:05:17;;;;;;;16.17;14.70;;;19.90;99.90;;;;;;5136092;27;20830;-62
2021/09/25 08:07:44;;;;;;;13.97;12.63;;;19.90;99.90;;;;;;5136301;27;20472;-63
2021/09/25 08:10:13;;;;;;;13.13;11.93;;;19.90;99.90;;;;;;5135698;27;20464;-62
2021/09/25 08:12:40;;;;;;;14.57;13.00;;;19.90;99.90;;;;;;5135241;27;20467;-62
2021/09/25 08:15:11;;;;;;;13.30;12.10;;;20.00;99.90;;;;;;5135630;27;20490;-63
2021/09/25 08:17:38;;;;;;;13.10;11.90;;;20.00;99.90;;;;;;5135809;27;20473;-63
2021/09/25 08:20:08;;;;;;;12.77;11.57;;;20.10;99.90;;;;;;5135362;27;20475;-63
2021/09/25 08:22:35;;;;;;;14.37;13.07;;;20.10;99.90;;;;;;5136073;27;20554;-63
2021/09/25 08:25:02;;;;;;;13.27;12.17;;;20.10;99.90;;;;;;5135199;27;20459;-63
2021/09/25 08:27:29;;;;;;;16.53;14.17;;;20.20;99.90;;;;;;5136097;27;20950;-63
2021/09/25 08:29:56;;;;;;;17.93;16.23;;;20.20;99.90;;;;;;5134966;27;20462;-63
2021/09/25 08:32:24;;;;;;;16.70;15.00;;;20.20;99.90;;;;;;5135748;27;20539;-63
2021/09/25 08:34:51;;;;;;;14.40;13.07;;;20.20;99.90;;;;;;5135271;27;20470;-63
2021/09/25 08:37:18;;;;;;;15.10;13.43;;;20.20;99.90;;;;;;5135470;27;20562;-63
2021/09/25 08:39:45;;;;;;;15.40;13.90;;;20.20;99.90;;;;;;5135330;27;20474;-63
2021/09/25 08:42:13;;;;;;;17.57;15.77;;;20.20;99.90;;;;;;5135406;27;20466;-63
2021/09/25 08:44:42;;;;;;;14.50;13.10;;;20.20;99.90;;;;;;5135521;27;20817;-63
2021/09/25 08:47:09;;;;;;;15.07;13.60;;;20.20;99.90;;;;;;5135011;27;20805;-63
2021/09/25 08:49:38;;;;;;;14.97;13.67;;;20.20;99.90;;;;;;5135231;27;20464;-63
2021/09/25 08:52:05;;;;;;;16.80;14.93;;;20.10;99.90;;;;;;5134933;27;20811;-63
2021/09/25 08:54:32;;;;;;;14.63;13.33;;;20.20;99.90;;;;;;5135483;27;20458;-63
2021/09/25 08:56:59;;;;;;;14.70;13.33;;;20.10;99.90;;;;;;5134820;27;20482;-63
2021/09/25 08:59:25;;;;;;;15.83;12.63;;;20.10;99.90;;;;;;5134937;27;20481;-63
2021/09/25 09:01:52;;;;;;;16.67;14.93;;;20.10;99.90;;;;;;5134706;27;20459;-63
2021/09/25 09:04:20;;;;;;;15.30;13.80;;;20.10;99.90;;;;;;5134853;27;20466;-62
2021/09/25 09:06:49;;;;;;;13.23;11.93;;;20.10;99.90;;;;;;5134925;27;20468;-63
2021/09/25 09:09:16;;;;;;;15.30;13.97;;;20.10;99.90;;;;;;5134279;27;20454;-63
2021/09/25 09:11:46;;;;;;;16.87;15.30;;;20.20;99.90;;;;;;5134824;27;20470;-63
2021/09/25 09:14:15;;;;;;;15.97;14.57;;;20.20;99.90;;;;;;5134390;27;20540;-63
2021/09/25 09:16:42;;;;;;;16.37;14.90;;;20.20;99.90;;;;;;5122765;27;20468;-63
2021/09/25 09:19:09;;;;;;;14.90;13.60;;;20.20;99.90;;;;;;5128389;27;20464;-63
2021/09/25 09:21:37;;;;;;;16.20;14.80;;;20.30;99.90;;;;;;5133655;27;20542;-63
2021/09/25 09:24:08;;;;;;;17.53;16.10;;;20.30;99.90;;;;;;5132840;27;20460;-63
2021/09/25 09:26:37;;;;;;;14.57;13.37;;;20.30;99.90;;;;;;5133748;27;20506;-63
2021/09/25 09:29:06;;;;;;;17.30;15.70;;;20.30;99.90;;;;;;5133200;27;20483;-63
2021/09/25 09:31:33;;;;;;;13.73;12.63;;;20.30;99.90;;;;;;5133811;27;20542;-63
2021/09/25 09:34:01;;;;;;;16.70;15.10;;;20.30;99.90;;;;;;5133687;27;20798;-62
2021/09/25 09:36:30;;;;;;;17.33;13.70;;;20.30;99.90;;;;;;5134365;27;20472;-63
2021/09/25 09:39:06;;;;;;;13.40;12.20;;;20.30;99.90;;;;;;5133939;27;20478;-64
2021/09/25 09:41:36;;;;;;;18.60;17.00;;;20.20;99.90;;;;;;5134304;27;20465;-63
2021/09/25 09:44:05;;;;;;;19.73;17.70;;;20.30;99.90;;;;;;5125712;27;20470;-63
2021/09/25 09:46:40;;;;;;;19.40;17.63;;;20.20;99.90;;;;;;5113806;27;20460;-63
2021/09/25 09:49:10;;;;;;;17.00;15.60;;;20.20;99.90;;;;;;5113026;27;20468;-63
2021/09/25 09:51:39;;;;;;;18.43;16.47;;;20.20;99.90;;;;;;5113762;27;20843;-63
2021/09/25 09:54:22;;;;;;;16.87;15.17;;;20.20;99.90;;;;;;5113179;27;20482;-63
2021/09/25 09:56:51;;;;;;;16.13;14.80;;;20.20;99.90;;;;;;5113753;27;20465;-63
2021/09/25 09:59:18;;;;;;;14.60;13.50;;;20.10;99.90;;;;;;5113044;27;20475;-63
2021/09/25 10:01:49;;;;;;;20.07;18.30;;;20.10;99.90;;;;;;5113518;27;20475;-63
2021/09/25 10:04:16;;;;;;;20.30;18.47;;;20.10;99.90;;;;;;5112646;27;20825;-63
2021/09/25 10:06:44;;;;;;;17.10;15.67;;;20.10;99.90;;;;;;5118529;27;20467;-63
2021/09/25 10:09:14;;;;;;;17.83;16.30;;;20.10;99.90;;;;;;5132976;27;20467;-63
2021/09/25 10:11:43;;;;;;;16.57;15.27;;;20.10;99.90;;;;;;5123862;27;20463;-63
2021/09/25 10:14:15;;;;;;;17.50;16.00;;;20.10;99.90;;;;;;5133058;27;20464;-62
2021/09/25 10:16:42;;;;;;;17.60;16.10;;;20.00;99.90;;;;;;5133799;27;20459;-63
2021/09/25 10:19:09;;;;;;;16.57;15.07;;;20.00;99.90;;;;;;5132895;27;20813;-62
2021/09/25 10:21:37;;;;;;;19.20;17.50;;;20.00;99.90;;;;;;5133460;27;20466;-63
2021/09/25 10:24:08;;;;;;;16.73;15.23;;;20.00;99.90;;;;;;5127163;27;20542;-63
2021/09/25 10:26:43;;;;;;;17.40;15.80;;;20.00;99.90;;;;;;5133552;27;20961;-63
2021/09/25 10:29:11;;;;;;;18.40;16.90;;;20.00;99.90;;;;;;5132687;27;20483;-63
2021/09/25 10:31:38;;;;;;;22.83;20.87;;;20.10;99.90;;;;;;5133567;27;20467;-62
2021/09/25 10:34:07;;;;;;;21.30;19.30;;;20.10;99.90;;;;;;5132578;27;20459;-62
2021/09/25 10:36:39;;;;;;;20.90;18.83;;;20.10;99.90;;;;;;5132172;27;20456;-63
2021/09/25 10:39:34;;;;;;;22.07;20.00;;;20.20;99.90;;;;;;5132894;27;20475;-63
2021/09/25 10:42:09;;;;;;;24.57;22.17;;;20.30;99.90;;;;;;5110160;27;20482;-63
2021/09/25 10:44:42;;;;;;;19.17;17.57;;;20.40;99.90;;;;;;5133462;27;20964;-63
2021/09/25 10:47:12;;;;;;;23.20;21.27;;;20.40;99.90;;;;;;5132957;27;20486;-63
2021/09/25 10:49:50;;;;;;;18.53;16.90;;;20.50;99.90;;;;;;5133110;27;20702;-63
2021/09/25 10:52:21;;;;;;;29.10;26.50;;;20.50;99.90;;;;;;5119302;27;20481;-63
2021/09/25 10:55:18;;;;;;;26.23;23.77;;;20.60;99.90;;;;;;5133176;27;20464;-63
2021/09/25 10:58:14;;;;;;;27.40;25.10;;;20.60;99.90;;;;;;5132990;27;20467;-63
2021/09/25 11:00:49;;;;;;;25.60;23.50;;;20.70;99.90;;;;;;5121658;27;20546;-63
2021/09/25 11:03:49;;;;;;;30.73;28.13;;;20.70;99.90;;;;;;5132715;27;20457;-63
2021/09/25 11:06:22;;;;;;;23.20;21.20;;;20.80;99.90;;;;;;5133217;27;20471;-63
2021/09/25 11:08:51;;;;;;;20.40;18.77;;;20.90;99.90;;;;;;5132688;27;21041;-62
2021/09/25 11:11:20;;;;;;;24.67;22.57;;;20.90;99.90;;;;;;5133070;27;20460;-63
2021/09/25 11:14:10;;;;;;;22.60;20.50;;;20.90;99.90;;;;;;5131300;27;20460;-63
2021/09/25 11:16:55;;;;;;;18.87;17.37;;;20.90;99.90;;;;;;5127757;27;20807;-63
2021/09/25 11:19:33;;;;;;;19.70;17.93;;;20.90;99.90;;;;;;5133019;27;20467;-63
2021/09/25 11:22:01;;;;;;;22.20;20.37;;;20.90;99.90;;;;;;5133045;27;20466;-62
2021/09/25 11:24:31;;;;;;;19.37;17.57;;;20.90;99.90;;;;;;5132594;27;20957;-63
2021/09/25 11:26:58;;;;;;;18.03;16.57;;;21.00;99.90;;;;;;5119644;27;20489;-63
2021/09/25 11:29:26;;;;;;;15.70;14.20;;;21.00;99.90;;;;;;5132289;27;20949;-63
2021/09/25 11:32:07;;;;;;;12.80;11.80;;;21.10;99.90;;;;;;5133166;27;20482;-63
2021/09/25 11:34:36;;;;;;;12.20;11.20;;;21.10;99.90;;;;;;5132578;27;21275;-63
2021/09/25 11:37:08;;;;;;;12.80;11.90;;;21.10;99.90;;;;;;5132317;27;20464;-63
2021/09/25 11:39:38;;;;;;;11.60;10.80;;;21.10;99.90;;;;;;5132572;27;21214;-63
2021/09/25 11:42:13;;;;;;;12.10;11.20;;;21.10;99.90;;;;;;5132746;27;20470;-63
2021/09/25 11:44:46;;;;;;;12.27;11.20;;;21.10;99.90;;;;;;5132525;27;20865;-63
2021/09/25 11:47:42;;;;;;;13.10;12.10;;;21.10;99.90;;;;;;5133625;27;20473;-63
2021/09/25 11:50:16;;;;;;;12.93;11.93;;;21.10;99.90;;;;;;5122551;27;20472;-63
2021/09/25 11:52:45;;;;;;;15.27;14.00;;;21.10;99.90;;;;;;5136419;27;20474;-63
2021/09/25 11:55:14;;;;;;;15.00;13.80;;;21.20;99.90;;;;;;5135840;27;20552;-63
2021/09/25 11:57:47;;;;;;;15.57;14.07;;;21.30;99.90;;;;;;5136137;27;20474;-63
2021/09/25 12:00:25;;;;;;;17.63;16.20;;;21.30;99.90;;;;;;5135906;27;20490;-63
2021/09/25 12:02:53;;;;;;;14.77;13.57;;;21.30;99.90;;;;;;5130439;27;20467;-63
2021/09/25 12:05:33;;;;;;;14.20;13.10;;;21.40;99.90;;;;;;5135137;27;20474;-63
2021/09/25 12:08:03;;;;;;;11.30;10.50;;;21.40;99.90;;;;;;5135714;27;20471;-63
2021/09/25 12:10:32;;;;;;;12.47;11.43;;;21.40;99.90;;;;;;5128483;27;20464;-63
2021/09/25 12:13:02;;;;;;;12.20;11.20;;;21.50;99.90;;;;;;5135337;27;20477;-63
2021/09/25 12:15:32;;;;;;;10.83;10.03;;;21.50;99.90;;;;;;5135769;27;20462;-63
2021/09/25 12:18:15;;;;;;;14.60;13.27;;;21.50;99.90;;;;;;5135451;27;20469;-63
2021/09/25 12:20:48;;;;;;;11.20;10.20;;;21.50;99.90;;;;;;5135710;27;20464;-63
2021/09/25 12:23:19;;;;;;;12.80;11.80;;;21.50;99.90;;;;;;5135317;27;20532;-63
2021/09/25 12:25:47;;;;;;;13.10;12.00;;;21.50;99.90;;;;;;5135659;27;20474;-63
2021/09/25 12:28:29;;;;;;;14.03;13.03;;;21.50;99.90;;;;;;5135320;27;20474;-63
2021/09/25 12:30:59;;;;;;;14.33;12.90;;;21.50;99.90;;;;;;5135419;27;20471;-63
2021/09/25 12:33:27;;;;;;;15.07;13.87;;;21.50;99.90;;;;;;5135072;27;21217;-63
2021/09/25 12:36:02;;;;;;;12.23;11.20;;;21.50;99.90;;;;;;5135495;27;20455;-63